sensor_id;sensor_type;location;lat;lon;timestamp;temperature;humidity
10010;DHT22;5044;48.652;9.250;2023-10-31T09:30:53;11.10;99.90
10010;DHT22;5044;48.652;9.250;2023-10-31T09:33:21;11.20;99.90
10010;DHT22;5044;48.652;9.250;2023-10-31T09:35:48;11.30;99.90
10010;DHT22;5044;48.652;9.250;2023-10-31T09:38:15;11.50;99.90
10010;DHT22;5044;48.652;9.250;2023-10-31T09:40:41;11.50;99.90
10010;DHT22;5044;48.652;9.250;2023-10-31T09:46:21;11.60;99.90
10010;DHT22;5044;48.652;9.250;2023-10-31T09:49:12;11.90;99.90
10010;DHT22;5044;48.652;9.250;2023-10-31T09:51:54;11.90;99.90
10010;DHT22;5044;48.652;9.250;2023-10-31T09:54:37;11.80;99.90
10010;DHT22;5044;48.652;9.250;2023-10-31T09:57:34;11.90;99.90
10010;DHT22;5044;48.652;9.250;2023-10-31T10:00:22;11.90;99.90
10010;DHT22;5044;48.652;9.250;2023-10-31T10:03:38;12.10;99.90
10010;DHT22;5044;48.652;9.250;2023-10-31T10:09:16;12.50;99.90
10010;DHT22;5044;48.652;9.250;2023-10-31T10:12:02;12.40;99.90
10010;DHT22;5044;48.652;9.250;2023-10-31T10:14:50;12.30;99.90
10010;DHT22;5044;48.652;9.250;2023-10-31T10:17:24;12.10;99.90
10010;DHT22;5044;48.652;9.250;2023-10-31T10:24:06;11.80;99.90
10010;DHT22;5044;48.652;9.250;2023-10-31T10:28:30;11.60;99.90
10010;DHT22;5044;48.652;9.250;2023-10-31T10:32:06;11.60;99.90
10010;DHT22;5044;48.652;9.250;2023-10-31T10:33:35;11.90;99.90
10010;DHT22;5044;48.652;9.250;2023-10-31T10:36:24;11.90;99.90
10010;DHT22;5044;48.652;9.250;2023-10-31T10:39:03;11.80;99.90
10010;DHT22;5044;48.652;9.250;2023-10-31T10:41:42;11.90;99.90
10010;DHT22;5044;48.652;9.250;2023-10-31T10:44:34;11.90;99.90
10010;DHT22;5044;48.652;9.250;2023-10-31T10:47:27;11.80;99.90
10010;DHT22;5044;48.652;9.250;2023-10-31T10:52:59;11.80;99.90
10010;DHT22;5044;48.652;9.250;2023-10-31T10:53:54;11.90;99.90
10010;DHT22;5044;48.652;9.250;2023-10-31T11:00:07;11.90;99.90
10010;DHT22;5044;48.652;9.250;2023-10-31T11:02:59;12.00;99.90
10010;DHT22;5044;48.652;9.250;2023-10-31T11:05:43;11.80;99.90
10010;DHT22;5044;48.652;9.250;2023-10-31T11:08:36;11.90;99.90
10010;DHT22;5044;48.652;9.250;2023-10-31T11:11:15;12.00;99.90
10010;DHT22;5044;48.652;9.250;2023-10-31T11:14:03;12.20;99.90
10010;DHT22;5044;48.652;9.250;2023-10-31T11:17:07;12.30;99.90
10010;DHT22;5044;48.652;9.250;2023-10-31T11:20:02;12.30;99.90
10010;DHT22;5044;48.652;9.250;2023-10-31T11:23:09;12.40;99.90
10010;DHT22;5044;48.652;9.250;2023-10-31T11:26:22;12.20;99.90
10010;DHT22;5044;48.652;9.250;2023-10-31T11:32:19;12.40;99.90
10010;DHT22;5044;48.652;9.250;2023-10-31T11:35:05;12.50;99.90
10010;DHT22;5044;48.652;9.250;2023-10-31T11:38:00;12.60;99.90
10010;DHT22;5044;48.652;9.250;2023-10-31T11:40:46;12.50;99.90
10010;DHT22;5044;48.652;9.250;2023-10-31T11:44:09;12.80;99.90
10010;DHT22;5044;48.652;9.250;2023-10-31T11:50:58;13.60;99.90
10010;DHT22;5044;48.652;9.250;2023-10-31T11:53:50;13.80;99.90
10010;DHT22;5044;48.652;9.250;2023-10-31T11:59:39;12.90;99.90
10010;DHT22;5044;48.652;9.250;2023-10-31T12:02:20;13.10;99.90
10010;DHT22;5044;48.652;9.250;2023-10-31T12:05:08;13.10;99.90
10010;DHT22;5044;48.652;9.250;2023-10-31T12:08:13;13.20;99.90
10010;DHT22;5044;48.652;9.250;2023-10-31T12:12:38;13.30;99.90
10010;DHT22;5044;48.652;9.250;2023-10-31T12:20:52;13.00;99.90
10010;DHT22;5044;48.652;9.250;2023-10-31T12:24:17;12.90;99.90
10010;DHT22;5044;48.652;9.250;2023-10-31T12:36:15;13.00;99.90
10010;DHT22;5044;48.652;9.250;2023-10-31T12:42:51;12.80;99.90
10010;DHT22;5044;48.652;9.250;2023-10-31T12:49:11;12.70;99.90
10010;DHT22;5044;48.652;9.250;2023-10-31T12:52:15;12.40;99.90
10010;DHT22;5044;48.652;9.250;2023-10-31T13:08:13;12.80;99.90
10010;DHT22;5044;48.652;9.250;2023-10-31T13:11:04;12.80;99.90
10010;DHT22;5044;48.652;9.250;2023-10-31T13:22:09;12.50;99.90
10010;DHT22;5044;48.652;9.250;2023-10-31T13:31:39;12.70;99.90
10010;DHT22;5044;48.652;9.250;2023-10-31T13:43:58;12.50;99.90
10010;DHT22;5044;48.652;9.250;2023-10-31T13:47:33;12.50;99.90
10010;DHT22;5044;48.652;9.250;2023-10-31T13:50:10;12.40;99.90
10010;DHT22;5044;48.652;9.250;2023-10-31T13:53:26;12.30;99.90
10010;DHT22;5044;48.652;9.250;2023-10-31T13:56:16;12.60;99.90
10010;DHT22;5044;48.652;9.250;2023-10-31T17:02:49;10.30;99.90
10010;DHT22;5044;48.652;9.250;2023-10-31T17:05:20;10.50;99.90
10010;DHT22;5044;48.652;9.250;2023-10-31T17:07:47;10.30;99.90
10010;DHT22;5044;48.652;9.250;2023-10-31T17:10:14;10.40;99.90
10010;DHT22;5044;48.652;9.250;2023-10-31T17:12:41;10.30;99.90
10010;DHT22;5044;48.652;9.250;2023-10-31T17:23:42;10.20;99.90
10010;DHT22;5044;48.652;9.250;2023-10-31T17:26:49;10.20;99.90
10010;DHT22;5044;48.652;9.250;2023-10-31T17:35:53;10.00;99.90
10010;DHT22;5044;48.652;9.250;2023-10-31T17:39:16;10.10;99.90
10010;DHT22;5044;48.652;9.250;2023-10-31T17:42:09;9.80;99.90
10010;DHT22;5044;48.652;9.250;2023-10-31T17:45:00;10.10;99.90
10010;DHT22;5044;48.652;9.250;2023-10-31T17:47:47;10.20;99.90
10010;DHT22;5044;48.652;9.250;2023-10-31T17:51:02;9.70;99.90
10010;DHT22;5044;48.652;9.250;2023-10-31T18:04:03;9.90;99.90
10010;DHT22;5044;48.652;9.250;2023-10-31T18:08:41;9.80;99.90
10010;DHT22;5044;48.652;9.250;2023-10-31T18:10:10;9.80;99.90
10010;DHT22;5044;48.652;9.250;2023-10-31T18:19:21;9.60;99.90
10010;DHT22;5044;48.652;9.250;2023-10-31T18:22:21;9.50;99.90
10010;DHT22;5044;48.652;9.250;2023-10-31T18:28:44;9.70;99.90
10010;DHT22;5044;48.652;9.250;2023-10-31T18:32:06;9.80;99.90
10010;DHT22;5044;48.652;9.250;2023-10-31T18:34:59;9.80;99.90
10010;DHT22;5044;48.652;9.250;2023-10-31T18:37:50;9.80;99.90
10010;DHT22;5044;48.652;9.250;2023-10-31T18:40:41;9.90;99.90
10010;DHT22;5044;48.652;9.250;2023-10-31T18:47:22;10.10;99.90
10010;DHT22;5044;48.652;9.250;2023-10-31T18:50:33;10.20;99.90
10010;DHT22;5044;48.652;9.250;2023-10-31T18:53:14;10.10;99.90
10010;DHT22;5044;48.652;9.250;2023-10-31T18:56:07;10.00;99.90
10010;DHT22;5044;48.652;9.250;2023-10-31T18:58:47;9.90;99.90
10010;DHT22;5044;48.652;9.250;2023-10-31T19:01:46;9.90;99.90
